sensor_id;sensor_type;location;lat;lon;timestamp;P1;durP1;ratioP1;P2;durP2;ratioP2
65463;SDS011;52063;45.110;9.870;2023-06-26T00:01:45;6.55;;;3.80;;
65463;SDS011;52063;45.110;9.870;2023-06-26T00:04:10;4.03;;;3.53;;
65463;SDS011;52063;45.110;9.870;2023-06-26T00:06:39;5.77;;;4.00;;
65463;SDS011;52063;45.110;9.870;2023-06-26T00:09:05;4.68;;;3.47;;
65463;SDS011;52063;45.110;9.870;2023-06-26T00:11:31;3.70;;;3.10;;
65463;SDS011;52063;45.110;9.870;2023-06-26T00:13:58;6.53;;;3.65;;
65463;SDS011;52063;45.110;9.870;2023-06-26T00:16:25;3.60;;;3.30;;
65463;SDS011;52063;45.110;9.870;2023-06-26T00:18:52;4.28;;;3.53;;
65463;SDS011;52063;45.110;9.870;2023-06-26T00:21:17;4.22;;;3.50;;
65463;SDS011;52063;45.110;9.870;2023-06-26T00:23:44;5.82;;;3.42;;
65463;SDS011;52063;45.110;9.870;2023-06-26T00:26:10;6.05;;;3.50;;
65463;SDS011;52063;45.110;9.870;2023-06-26T00:28:36;3.80;;;3.40;;
65463;SDS011;52063;45.110;9.870;2023-06-26T00:31:02;3.88;;;3.47;;
65463;SDS011;52063;45.110;9.870;2023-06-26T00:33:28;6.72;;;3.45;;
65463;SDS011;52063;45.110;9.870;2023-06-26T00:35:53;6.70;;;4.03;;
65463;SDS011;52063;45.110;9.870;2023-06-26T00:38:19;3.70;;;3.23;;
65463;SDS011;52063;45.110;9.870;2023-06-26T00:40:44;3.65;;;3.25;;
65463;SDS011;52063;45.110;9.870;2023-06-26T00:43:10;6.30;;;3.30;;
65463;SDS011;52063;45.110;9.870;2023-06-26T00:45:35;4.23;;;3.40;;
65463;SDS011;52063;45.110;9.870;2023-06-26T00:48:01;4.60;;;3.33;;
65463;SDS011;52063;45.110;9.870;2023-06-26T00:50:28;4.00;;;3.47;;
65463;SDS011;52063;45.110;9.870;2023-06-26T00:52:53;6.60;;;4.10;;
65463;SDS011;52063;45.110;9.870;2023-06-26T00:55:22;4.43;;;3.40;;
65463;SDS011;52063;45.110;9.870;2023-06-26T00:57:47;5.03;;;3.30;;
65463;SDS011;52063;45.110;9.870;2023-06-26T01:00:13;5.30;;;3.35;;
65463;SDS011;52063;45.110;9.870;2023-06-26T01:02:39;4.50;;;3.47;;
65463;SDS011;52063;45.110;9.870;2023-06-26T01:05:05;8.55;;;3.60;;
65463;SDS011;52063;45.110;9.870;2023-06-26T01:07:34;4.73;;;3.80;;
65463;SDS011;52063;45.110;9.870;2023-06-26T01:10:07;6.32;;;3.65;;
65463;SDS011;52063;45.110;9.870;2023-06-26T01:12:33;6.13;;;3.45;;
65463;SDS011;52063;45.110;9.870;2023-06-26T01:14:59;3.80;;;2.57;;
65463;SDS011;52063;45.110;9.870;2023-06-26T01:17:25;4.97;;;3.93;;
65463;SDS011;52063;45.110;9.870;2023-06-26T01:19:57;5.82;;;4.40;;
65463;SDS011;52063;45.110;9.870;2023-06-26T01:27:36;8.00;;;4.73;;
65463;SDS011;52063;45.110;9.870;2023-06-26T01:30:03;6.10;;;4.10;;
65463;SDS011;52063;45.110;9.870;2023-06-26T01:32:30;6.35;;;4.70;;
65463;SDS011;52063;45.110;9.870;2023-06-26T01:34:56;6.13;;;4.37;;
65463;SDS011;52063;45.110;9.870;2023-06-26T01:37:22;5.88;;;4.47;;
65463;SDS011;52063;45.110;9.870;2023-06-26T01:39:48;5.07;;;4.33;;
65463;SDS011;52063;45.110;9.870;2023-06-26T01:42:13;7.00;;;4.33;;
65463;SDS011;52063;45.110;9.870;2023-06-26T01:44:41;6.33;;;4.80;;
65463;SDS011;52063;45.110;9.870;2023-06-26T01:47:09;5.30;;;4.22;;
65463;SDS011;52063;45.110;9.870;2023-06-26T01:52:31;4.40;;;3.67;;
65463;SDS011;52063;45.110;9.870;2023-06-26T01:55:15;5.78;;;3.40;;
65463;SDS011;52063;45.110;9.870;2023-06-26T01:57:47;6.67;;;4.30;;
65463;SDS011;52063;45.110;9.870;2023-06-26T02:00:16;8.88;;;4.97;;
65463;SDS011;52063;45.110;9.870;2023-06-26T02:02:43;4.68;;;3.55;;
65463;SDS011;52063;45.110;9.870;2023-06-26T02:05:12;5.15;;;4.65;;
65463;SDS011;52063;45.110;9.870;2023-06-26T02:07:38;6.07;;;4.82;;
65463;SDS011;52063;45.110;9.870;2023-06-26T02:10:04;5.30;;;4.43;;
65463;SDS011;52063;45.110;9.870;2023-06-26T02:12:32;6.97;;;5.40;;
65463;SDS011;52063;45.110;9.870;2023-06-26T02:14:57;7.20;;;4.77;;
65463;SDS011;52063;45.110;9.870;2023-06-26T02:17:24;6.07;;;5.25;;
65463;SDS011;52063;45.110;9.870;2023-06-26T02:19:49;7.13;;;4.07;;
65463;SDS011;52063;45.110;9.870;2023-06-26T02:22:15;5.32;;;4.43;;
65463;SDS011;52063;45.110;9.870;2023-06-26T02:24:41;7.47;;;4.93;;
65463;SDS011;52063;45.110;9.870;2023-06-26T02:27:08;6.72;;;4.05;;
65463;SDS011;52063;45.110;9.870;2023-06-26T02:29:35;6.45;;;4.53;;
65463;SDS011;52063;45.110;9.870;2023-06-26T02:32:01;5.93;;;3.70;;
65463;SDS011;52063;45.110;9.870;2023-06-26T02:34:26;8.00;;;4.80;;
65463;SDS011;52063;45.110;9.870;2023-06-26T02:36:52;5.70;;;4.68;;
65463;SDS011;52063;45.110;9.870;2023-06-26T02:39:21;5.60;;;3.70;;
65463;SDS011;52063;45.110;9.870;2023-06-26T02:41:47;7.20;;;4.03;;
65463;SDS011;52063;45.110;9.870;2023-06-26T02:44:14;4.88;;;3.97;;
65463;SDS011;52063;45.110;9.870;2023-06-26T02:46:40;5.75;;;5.03;;
65463;SDS011;52063;45.110;9.870;2023-06-26T02:49:06;4.93;;;4.53;;
65463;SDS011;52063;45.110;9.870;2023-06-26T02:51:33;5.97;;;5.18;;
65463;SDS011;52063;45.110;9.870;2023-06-26T02:54:01;5.10;;;4.60;;
65463;SDS011;52063;45.110;9.870;2023-06-26T02:56:27;5.23;;;4.73;;
65463;SDS011;52063;45.110;9.870;2023-06-26T02:58:54;8.13;;;5.50;;
65463;SDS011;52063;45.110;9.870;2023-06-26T03:01:21;7.45;;;4.72;;
65463;SDS011;52063;45.110;9.870;2023-06-26T03:03:47;6.47;;;5.22;;
65463;SDS011;52063;45.110;9.870;2023-06-26T03:06:15;5.53;;;4.97;;
65463;SDS011;52063;45.110;9.870;2023-06-26T03:08:41;6.10;;;4.87;;
65463;SDS011;52063;45.110;9.870;2023-06-26T03:11:07;5.57;;;3.97;;
65463;SDS011;52063;45.110;9.870;2023-06-26T03:13:34;5.68;;;4.32;;
65463;SDS011;52063;45.110;9.870;2023-06-26T03:16:00;5.60;;;4.72;;
65463;SDS011;52063;45.110;9.870;2023-06-26T03:18:26;5.80;;;4.73;;
65463;SDS011;52063;45.110;9.870;2023-06-26T03:20:52;6.68;;;3.80;;
65463;SDS011;52063;45.110;9.870;2023-06-26T03:23:21;5.03;;;4.53;;
65463;SDS011;52063;45.110;9.870;2023-06-26T03:25:47;5.65;;;4.38;;
65463;SDS011;52063;45.110;9.870;2023-06-26T03:28:25;6.80;;;3.97;;
65463;SDS011;52063;45.110;9.870;2023-06-26T03:30:50;5.85;;;4.78;;
65463;SDS011;52063;45.110;9.870;2023-06-26T03:33:16;6.25;;;5.07;;
65463;SDS011;52063;45.110;9.870;2023-06-26T03:35:42;8.10;;;5.47;;
65463;SDS011;52063;45.110;9.870;2023-06-26T03:38:11;11.63;;;5.75;;
65463;SDS011;52063;45.110;9.870;2023-06-26T03:40:36;6.97;;;5.38;;
65463;SDS011;52063;45.110;9.870;2023-06-26T03:43:02;7.23;;;4.10;;
65463;SDS011;52063;45.110;9.870;2023-06-26T03:45:34;5.20;;;3.65;;
65463;SDS011;52063;45.110;9.870;2023-06-26T03:48:00;4.77;;;3.40;;
65463;SDS011;52063;45.110;9.870;2023-06-26T03:50:25;5.97;;;4.40;;
65463;SDS011;52063;45.110;9.870;2023-06-26T03:52:51;5.68;;;4.72;;
65463;SDS011;52063;45.110;9.870;2023-06-26T03:55:17;5.47;;;4.73;;
65463;SDS011;52063;45.110;9.870;2023-06-26T03:57:44;5.88;;;3.72;;
65463;SDS011;52063;45.110;9.870;2023-06-26T04:00:10;8.03;;;4.70;;
65463;SDS011;52063;45.110;9.870;2023-06-26T04:02:40;7.65;;;4.32;;
65463;SDS011;52063;45.110;9.870;2023-06-26T04:05:06;5.53;;;3.60;;
65463;SDS011;52063;45.110;9.870;2023-06-26T04:07:33;5.70;;;3.35;;
65463;SDS011;52063;45.110;9.870;2023-06-26T04:09:59;4.68;;;3.70;;
65463;SDS011;52063;45.110;9.870;2023-06-26T04:12:26;4.83;;;2.87;;
65463;SDS011;52063;45.110;9.870;2023-06-26T04:14:51;3.85;;;3.42;;
65463;SDS011;52063;45.110;9.870;2023-06-26T04:17:17;5.03;;;3.97;;
65463;SDS011;52063;45.110;9.870;2023-06-26T04:19:42;5.60;;;3.30;;
65463;SDS011;52063;45.110;9.870;2023-06-26T04:22:07;3.88;;;3.47;;
65463;SDS011;52063;45.110;9.870;2023-06-26T04:24:33;4.10;;;3.30;;
65463;SDS011;52063;45.110;9.870;2023-06-26T04:26:58;3.87;;;3.40;;
65463;SDS011;52063;45.110;9.870;2023-06-26T04:29:27;11.20;;;4.27;;
65463;SDS011;52063;45.110;9.870;2023-06-26T04:31:53;4.53;;;3.73;;
65463;SDS011;52063;45.110;9.870;2023-06-26T04:34:22;4.60;;;4.20;;
65463;SDS011;52063;45.110;9.870;2023-06-26T04:36:49;5.10;;;4.20;;
65463;SDS011;52063;45.110;9.870;2023-06-26T04:39:15;6.40;;;4.55;;
65463;SDS011;52063;45.110;9.870;2023-06-26T04:41:41;6.10;;;5.40;;
65463;SDS011;52063;45.110;9.870;2023-06-26T04:44:08;7.88;;;5.85;;
65463;SDS011;52063;45.110;9.870;2023-06-26T04:46:33;7.43;;;5.23;;
65463;SDS011;52063;45.110;9.870;2023-06-26T04:48:58;6.90;;;5.28;;
65463;SDS011;52063;45.110;9.870;2023-06-26T04:51:24;7.07;;;4.53;;
65463;SDS011;52063;45.110;9.870;2023-06-26T04:53:52;6.20;;;4.13;;
65463;SDS011;52063;45.110;9.870;2023-06-26T04:56:17;5.63;;;4.23;;
65463;SDS011;52063;45.110;9.870;2023-06-26T04:58:43;5.88;;;3.50;;
65463;SDS011;52063;45.110;9.870;2023-06-26T05:01:08;5.77;;;3.50;;
65463;SDS011;52063;45.110;9.870;2023-06-26T05:03:35;4.15;;;3.22;;
65463;SDS011;52063;45.110;9.870;2023-06-26T05:06:01;6.50;;;4.13;;
65463;SDS011;52063;45.110;9.870;2023-06-26T05:08:27;7.43;;;3.40;;
65463;SDS011;52063;45.110;9.870;2023-06-26T05:10:53;4.50;;;3.10;;
65463;SDS011;52063;45.110;9.870;2023-06-26T05:13:22;5.53;;;3.40;;
65463;SDS011;52063;45.110;9.870;2023-06-26T05:15:48;3.53;;;3.13;;
65463;SDS011;52063;45.110;9.870;2023-06-26T05:18:14;4.60;;;3.63;;
65463;SDS011;52063;45.110;9.870;2023-06-26T05:20:40;4.27;;;3.63;;
65463;SDS011;52063;45.110;9.870;2023-06-26T05:23:06;3.75;;;2.97;;
65463;SDS011;52063;45.110;9.870;2023-06-26T05:25:32;3.37;;;3.07;;
65463;SDS011;52063;45.110;9.870;2023-06-26T05:27:59;5.95;;;3.38;;
65463;SDS011;52063;45.110;9.870;2023-06-26T05:30:25;3.35;;;3.03;;
65463;SDS011;52063;45.110;9.870;2023-06-26T05:32:52;4.53;;;3.50;;
65463;SDS011;52063;45.110;9.870;2023-06-26T05:35:22;3.63;;;3.33;;
65463;SDS011;52063;45.110;9.870;2023-06-26T05:37:48;7.07;;;2.90;;
65463;SDS011;52063;45.110;9.870;2023-06-26T05:40:16;6.40;;;3.45;;
65463;SDS011;52063;45.110;9.870;2023-06-26T05:42:42;3.72;;;3.10;;
65463;SDS011;52063;45.110;9.870;2023-06-26T05:45:09;5.78;;;3.58;;
65463;SDS011;52063;45.110;9.870;2023-06-26T05:47:34;6.25;;;3.30;;
65463;SDS011;52063;45.110;9.870;2023-06-26T05:50:00;3.67;;;3.30;;
65463;SDS011;52063;45.110;9.870;2023-06-26T05:52:26;2.92;;;2.65;;
65463;SDS011;52063;45.110;9.870;2023-06-26T05:54:52;3.87;;;2.70;;
65463;SDS011;52063;45.110;9.870;2023-06-26T05:57:18;3.30;;;3.00;;
65463;SDS011;52063;45.110;9.870;2023-06-26T05:59:44;4.43;;;3.10;;
65463;SDS011;52063;45.110;9.870;2023-06-26T06:02:11;3.92;;;3.00;;
65463;SDS011;52063;45.110;9.870;2023-06-26T06:04:37;5.17;;;3.43;;
65463;SDS011;52063;45.110;9.870;2023-06-26T06:07:03;4.85;;;3.45;;
65463;SDS011;52063;45.110;9.870;2023-06-26T06:09:28;4.57;;;3.00;;
65463;SDS011;52063;45.110;9.870;2023-06-26T06:11:54;3.80;;;3.00;;
65463;SDS011;52063;45.110;9.870;2023-06-26T06:14:19;6.57;;;2.63;;
65463;SDS011;52063;45.110;9.870;2023-06-26T06:16:45;4.95;;;2.95;;
65463;SDS011;52063;45.110;9.870;2023-06-26T06:19:10;11.87;;;3.60;;
65463;SDS011;52063;45.110;9.870;2023-06-26T06:21:38;4.72;;;3.00;;
65463;SDS011;52063;45.110;9.870;2023-06-26T06:24:04;4.70;;;2.90;;
65463;SDS011;52063;45.110;9.870;2023-06-26T06:26:30;4.50;;;3.10;;
65463;SDS011;52063;45.110;9.870;2023-06-26T06:28:55;3.77;;;3.20;;
65463;SDS011;52063;45.110;9.870;2023-06-26T06:31:20;4.17;;;3.00;;
65463;SDS011;52063;45.110;9.870;2023-06-26T06:33:46;4.45;;;3.45;;
65463;SDS011;52063;45.110;9.870;2023-06-26T06:36:11;5.00;;;3.37;;
65463;SDS011;52063;45.110;9.870;2023-06-26T06:38:37;4.07;;;3.40;;
65463;SDS011;52063;45.110;9.870;2023-06-26T06:41:02;5.40;;;3.70;;
65463;SDS011;52063;45.110;9.870;2023-06-26T06:43:28;3.93;;;3.27;;
65463;SDS011;52063;45.110;9.870;2023-06-26T06:45:53;4.10;;;3.70;;
65463;SDS011;52063;45.110;9.870;2023-06-26T06:48:19;4.35;;;3.90;;
65463;SDS011;52063;45.110;9.870;2023-06-26T06:50:44;5.20;;;3.40;;
65463;SDS011;52063;45.110;9.870;2023-06-26T06:53:09;4.90;;;4.07;;
65463;SDS011;52063;45.110;9.870;2023-06-26T06:55:35;4.20;;;3.60;;
65463;SDS011;52063;45.110;9.870;2023-06-26T06:58:00;4.33;;;3.57;;
65463;SDS011;52063;45.110;9.870;2023-06-26T07:00:26;6.47;;;4.87;;
65463;SDS011;52063;45.110;9.870;2023-06-26T07:02:52;7.97;;;4.53;;
65463;SDS011;52063;45.110;9.870;2023-06-26T07:05:18;6.70;;;4.03;;
65463;SDS011;52063;45.110;9.870;2023-06-26T07:07:43;5.15;;;4.13;;
65463;SDS011;52063;45.110;9.870;2023-06-26T07:10:10;5.47;;;4.30;;
65463;SDS011;52063;45.110;9.870;2023-06-26T07:12:37;5.10;;;3.90;;
65463;SDS011;52063;45.110;9.870;2023-06-26T07:15:03;5.20;;;4.20;;
65463;SDS011;52063;45.110;9.870;2023-06-26T07:17:30;5.82;;;4.10;;
65463;SDS011;52063;45.110;9.870;2023-06-26T07:19:56;5.70;;;4.33;;
65463;SDS011;52063;45.110;9.870;2023-06-26T07:22:21;4.80;;;4.28;;
65463;SDS011;52063;45.110;9.870;2023-06-26T07:24:47;8.30;;;4.60;;
65463;SDS011;52063;45.110;9.870;2023-06-26T07:27:14;8.52;;;4.63;;
65463;SDS011;52063;45.110;9.870;2023-06-26T07:29:40;6.32;;;4.47;;
65463;SDS011;52063;45.110;9.870;2023-06-26T07:32:05;7.27;;;4.80;;
65463;SDS011;52063;45.110;9.870;2023-06-26T07:34:31;5.78;;;5.00;;
65463;SDS011;52063;45.110;9.870;2023-06-26T07:36:56;9.47;;;4.80;;
65463;SDS011;52063;45.110;9.870;2023-06-26T07:39:22;6.33;;;4.43;;
65463;SDS011;52063;45.110;9.870;2023-06-26T07:41:47;8.03;;;4.70;;
65463;SDS011;52063;45.110;9.870;2023-06-26T07:44:13;4.95;;;4.53;;
65463;SDS011;52063;45.110;9.870;2023-06-26T07:46:39;6.50;;;4.07;;
65463;SDS011;52063;45.110;9.870;2023-06-26T07:49:04;5.47;;;3.78;;
65463;SDS011;52063;45.110;9.870;2023-06-26T07:51:30;5.83;;;4.30;;
65463;SDS011;52063;45.110;9.870;2023-06-26T07:53:55;4.87;;;3.83;;
65463;SDS011;52063;45.110;9.870;2023-06-26T07:56:21;9.60;;;4.45;;
65463;SDS011;52063;45.110;9.870;2023-06-26T07:58:46;7.83;;;4.13;;
65463;SDS011;52063;45.110;9.870;2023-06-26T08:01:11;6.30;;;4.13;;
65463;SDS011;52063;45.110;9.870;2023-06-26T08:03:37;7.87;;;3.90;;
65463;SDS011;52063;45.110;9.870;2023-06-26T08:06:02;5.10;;;4.60;;
65463;SDS011;52063;45.110;9.870;2023-06-26T08:08:28;5.70;;;4.13;;
65463;SDS011;52063;45.110;9.870;2023-06-26T08:10:54;7.45;;;4.70;;
65463;SDS011;52063;45.110;9.870;2023-06-26T08:13:19;4.50;;;4.10;;
65463;SDS011;52063;45.110;9.870;2023-06-26T08:15:45;6.72;;;4.20;;
65463;SDS011;52063;45.110;9.870;2023-06-26T08:18:10;4.13;;;3.70;;
65463;SDS011;52063;45.110;9.870;2023-06-26T08:20:36;7.43;;;4.90;;
65463;SDS011;52063;45.110;9.870;2023-06-26T08:23:03;4.90;;;4.38;;
65463;SDS011;52063;45.110;9.870;2023-06-26T08:25:29;7.60;;;4.13;;
65463;SDS011;52063;45.110;9.870;2023-06-26T08:27:54;7.53;;;4.20;;
65463;SDS011;52063;45.110;9.870;2023-06-26T08:30:20;8.57;;;4.55;;
65463;SDS011;52063;45.110;9.870;2023-06-26T08:32:46;7.90;;;4.55;;
65463;SDS011;52063;45.110;9.870;2023-06-26T08:35:12;5.60;;;3.93;;
65463;SDS011;52063;45.110;9.870;2023-06-26T08:37:37;5.03;;;4.23;;
65463;SDS011;52063;45.110;9.870;2023-06-26T08:40:03;7.05;;;3.92;;
65463;SDS011;52063;45.110;9.870;2023-06-26T08:42:29;9.68;;;4.47;;
65463;SDS011;52063;45.110;9.870;2023-06-26T08:44:54;5.03;;;3.77;;
65463;SDS011;52063;45.110;9.870;2023-06-26T08:47:20;4.30;;;3.53;;
65463;SDS011;52063;45.110;9.870;2023-06-26T08:49:47;4.55;;;3.90;;
65463;SDS011;52063;45.110;9.870;2023-06-26T08:52:23;5.03;;;3.90;;
65463;SDS011;52063;45.110;9.870;2023-06-26T08:54:52;5.38;;;3.70;;
65463;SDS011;52063;45.110;9.870;2023-06-26T08:57:22;8.77;;;4.20;;
65463;SDS011;52063;45.110;9.870;2023-06-26T08:59:48;8.18;;;3.75;;
65463;SDS011;52063;45.110;9.870;2023-06-26T09:02:14;7.78;;;3.75;;
65463;SDS011;52063;45.110;9.870;2023-06-26T09:04:40;6.95;;;3.85;;
65463;SDS011;52063;45.110;9.870;2023-06-26T09:07:06;8.07;;;3.60;;
65463;SDS011;52063;45.110;9.870;2023-06-26T09:09:31;4.60;;;3.45;;
65463;SDS011;52063;45.110;9.870;2023-06-26T09:11:57;5.27;;;3.60;;
65463;SDS011;52063;45.110;9.870;2023-06-26T09:14:23;6.37;;;3.50;;
65463;SDS011;52063;45.110;9.870;2023-06-26T09:16:48;7.27;;;3.60;;
65463;SDS011;52063;45.110;9.870;2023-06-26T09:19:14;5.40;;;3.60;;
65463;SDS011;52063;45.110;9.870;2023-06-26T09:21:41;3.88;;;3.20;;
65463;SDS011;52063;45.110;9.870;2023-06-26T09:24:07;5.90;;;3.27;;
65463;SDS011;52063;45.110;9.870;2023-06-26T09:26:35;4.05;;;3.17;;
65463;SDS011;52063;45.110;9.870;2023-06-26T09:29:04;4.43;;;3.10;;
65463;SDS011;52063;45.110;9.870;2023-06-26T09:31:30;4.53;;;3.05;;
65463;SDS011;52063;45.110;9.870;2023-06-26T09:33:58;4.28;;;2.97;;
65463;SDS011;52063;45.110;9.870;2023-06-26T09:36:26;3.33;;;3.03;;
65463;SDS011;52063;45.110;9.870;2023-06-26T09:38:54;4.25;;;3.10;;
65463;SDS011;52063;45.110;9.870;2023-06-26T09:41:20;6.88;;;3.20;;
65463;SDS011;52063;45.110;9.870;2023-06-26T09:43:49;3.83;;;3.40;;
65463;SDS011;52063;45.110;9.870;2023-06-26T09:46:28;6.27;;;3.60;;
65463;SDS011;52063;45.110;9.870;2023-06-26T09:49:05;4.53;;;2.72;;
65463;SDS011;52063;45.110;9.870;2023-06-26T09:51:35;4.55;;;3.00;;
65463;SDS011;52063;45.110;9.870;2023-06-26T09:54:03;3.85;;;2.92;;
65463;SDS011;52063;45.110;9.870;2023-06-26T09:56:29;4.65;;;3.10;;
65463;SDS011;52063;45.110;9.870;2023-06-26T09:58:56;5.73;;;3.63;;
65463;SDS011;52063;45.110;9.870;2023-06-26T10:01:23;4.45;;;3.08;;
65463;SDS011;52063;45.110;9.870;2023-06-26T10:03:49;3.95;;;3.10;;
65463;SDS011;52063;45.110;9.870;2023-06-26T10:06:14;4.33;;;3.13;;
65463;SDS011;52063;45.110;9.870;2023-06-26T10:08:44;3.72;;;3.30;;
65463;SDS011;52063;45.110;9.870;2023-06-26T10:11:11;3.38;;;3.08;;
65463;SDS011;52063;45.110;9.870;2023-06-26T10:13:39;3.97;;;3.10;;
65463;SDS011;52063;45.110;9.870;2023-06-26T10:16:07;4.40;;;3.07;;
65463;SDS011;52063;45.110;9.870;2023-06-26T10:18:34;3.95;;;3.15;;
65463;SDS011;52063;45.110;9.870;2023-06-26T10:21:01;3.00;;;2.70;;
65463;SDS011;52063;45.110;9.870;2023-06-26T10:23:28;4.05;;;2.70;;
65463;SDS011;52063;45.110;9.870;2023-06-26T10:25:56;3.30;;;3.00;;
65463;SDS011;52063;45.110;9.870;2023-06-26T10:28:24;4.93;;;3.00;;
65463;SDS011;52063;45.110;9.870;2023-06-26T10:30:51;5.90;;;2.78;;
65463;SDS011;52063;45.110;9.870;2023-06-26T10:33:17;3.33;;;2.92;;
65463;SDS011;52063;45.110;9.870;2023-06-26T10:35:43;5.82;;;2.95;;
65463;SDS011;52063;45.110;9.870;2023-06-26T10:38:12;4.35;;;3.50;;
65463;SDS011;52063;45.110;9.870;2023-06-26T10:40:45;5.50;;;2.63;;
65463;SDS011;52063;45.110;9.870;2023-06-26T10:43:11;5.68;;;3.35;;
65463;SDS011;52063;45.110;9.870;2023-06-26T10:45:47;3.75;;;3.35;;
65463;SDS011;52063;45.110;9.870;2023-06-26T10:48:18;3.30;;;3.00;;
65463;SDS011;52063;45.110;9.870;2023-06-26T10:50:46;3.60;;;3.30;;
65463;SDS011;52063;45.110;9.870;2023-06-26T10:53:21;3.58;;;3.28;;
65463;SDS011;52063;45.110;9.870;2023-06-26T10:55:59;4.90;;;3.43;;
65463;SDS011;52063;45.110;9.870;2023-06-26T10:58:32;3.38;;;3.05;;
65463;SDS011;52063;45.110;9.870;2023-06-26T11:03:45;5.05;;;3.30;;
65463;SDS011;52063;45.110;9.870;2023-06-26T11:06:12;4.85;;;2.92;;
65463;SDS011;52063;45.110;9.870;2023-06-26T11:08:54;3.67;;;3.37;;
65463;SDS011;52063;45.110;9.870;2023-06-26T11:14:30;2.90;;;2.70;;
65463;SDS011;52063;45.110;9.870;2023-06-26T11:16:56;4.53;;;3.20;;
65463;SDS011;52063;45.110;9.870;2023-06-26T11:19:25;3.95;;;3.10;;
65463;SDS011;52063;45.110;9.870;2023-06-26T11:21:57;3.20;;;2.90;;
65463;SDS011;52063;45.110;9.870;2023-06-26T11:24:23;3.80;;;3.00;;
65463;SDS011;52063;45.110;9.870;2023-06-26T11:26:48;3.47;;;3.17;;
65463;SDS011;52063;45.110;9.870;2023-06-26T11:29:14;5.10;;;2.73;;
65463;SDS011;52063;45.110;9.870;2023-06-26T11:31:40;4.97;;;3.00;;
65463;SDS011;52063;45.110;9.870;2023-06-26T11:34:10;4.10;;;2.85;;
65463;SDS011;52063;45.110;9.870;2023-06-26T11:36:40;3.63;;;3.33;;
65463;SDS011;52063;45.110;9.870;2023-06-26T11:39:07;4.05;;;3.10;;
65463;SDS011;52063;45.110;9.870;2023-06-26T11:41:34;4.20;;;3.10;;
65463;SDS011;52063;45.110;9.870;2023-06-26T11:44:07;3.70;;;3.00;;
65463;SDS011;52063;45.110;9.870;2023-06-26T11:46:34;3.58;;;2.67;;
65463;SDS011;52063;45.110;9.870;2023-06-26T11:49:02;7.03;;;2.90;;
65463;SDS011;52063;45.110;9.870;2023-06-26T11:51:28;6.18;;;3.35;;
65463;SDS011;52063;45.110;9.870;2023-06-26T11:53:54;4.60;;;2.93;;
65463;SDS011;52063;45.110;9.870;2023-06-26T11:56:19;4.33;;;3.23;;
65463;SDS011;52063;45.110;9.870;2023-06-26T11:59:00;3.23;;;2.83;;
65463;SDS011;52063;45.110;9.870;2023-06-26T12:04:04;3.15;;;2.75;;
65463;SDS011;52063;45.110;9.870;2023-06-26T12:06:32;3.30;;;3.00;;
65463;SDS011;52063;45.110;9.870;2023-06-26T12:09:00;3.42;;;3.17;;
65463;SDS011;52063;45.110;9.870;2023-06-26T12:11:26;3.43;;;3.13;;
65463;SDS011;52063;45.110;9.870;2023-06-26T12:13:53;4.60;;;2.83;;
65463;SDS011;52063;45.110;9.870;2023-06-26T12:16:19;2.90;;;2.70;;
65463;SDS011;52063;45.110;9.870;2023-06-26T12:18:45;5.97;;;3.00;;
65463;SDS011;52063;45.110;9.870;2023-06-26T12:21:27;4.23;;;3.00;;
65463;SDS011;52063;45.110;9.870;2023-06-26T12:23:59;3.27;;;2.90;;
65463;SDS011;52063;45.110;9.870;2023-06-26T12:26:25;2.90;;;2.70;;
65463;SDS011;52063;45.110;9.870;2023-06-26T12:28:52;3.17;;;2.88;;
65463;SDS011;52063;45.110;9.870;2023-06-26T12:31:20;3.20;;;3.00;;
65463;SDS011;52063;45.110;9.870;2023-06-26T12:33:46;3.63;;;3.33;;
65463;SDS011;52063;45.110;9.870;2023-06-26T12:36:12;4.00;;;2.97;;
65463;SDS011;52063;45.110;9.870;2023-06-26T12:38:38;3.30;;;2.60;;
65463;SDS011;52063;45.110;9.870;2023-06-26T12:41:03;3.30;;;2.88;;
65463;SDS011;52063;45.110;9.870;2023-06-26T12:43:29;3.90;;;3.00;;
65463;SDS011;52063;45.110;9.870;2023-06-26T12:45:55;3.22;;;2.90;;
65463;SDS011;52063;45.110;9.870;2023-06-26T12:48:21;5.35;;;3.08;;
65463;SDS011;52063;45.110;9.870;2023-06-26T12:51:12;3.43;;;2.67;;
65463;SDS011;52063;45.110;9.870;2023-06-26T12:53:38;4.30;;;3.03;;
65463;SDS011;52063;45.110;9.870;2023-06-26T12:56:10;2.83;;;2.60;;
65463;SDS011;52063;45.110;9.870;2023-06-26T12:58:36;2.90;;;2.55;;
65463;SDS011;52063;45.110;9.870;2023-06-26T13:01:06;3.20;;;2.90;;
65463;SDS011;52063;45.110;9.870;2023-06-26T13:03:45;3.00;;;2.70;;
65463;SDS011;52063;45.110;9.870;2023-06-26T13:06:10;3.55;;;3.05;;
65463;SDS011;52063;45.110;9.870;2023-06-26T13:08:36;3.43;;;2.37;;
65463;SDS011;52063;45.110;9.870;2023-06-26T13:11:02;4.30;;;2.72;;
65463;SDS011;52063;45.110;9.870;2023-06-26T13:13:27;3.67;;;2.80;;
65463;SDS011;52063;45.110;9.870;2023-06-26T13:15:53;3.05;;;2.83;;
65463;SDS011;52063;45.110;9.870;2023-06-26T13:18:18;2.97;;;2.70;;
65463;SDS011;52063;45.110;9.870;2023-06-26T13:20:44;3.30;;;3.00;;
65463;SDS011;52063;45.110;9.870;2023-06-26T13:23:09;4.35;;;2.58;;
65463;SDS011;52063;45.110;9.870;2023-06-26T13:25:35;3.03;;;2.80;;
65463;SDS011;52063;45.110;9.870;2023-06-26T13:28:00;3.00;;;2.70;;
65463;SDS011;52063;45.110;9.870;2023-06-26T13:30:26;2.70;;;2.50;;
65463;SDS011;52063;45.110;9.870;2023-06-26T13:32:51;2.80;;;2.60;;
65463;SDS011;52063;45.110;9.870;2023-06-26T13:35:17;2.80;;;2.60;;
65463;SDS011;52063;45.110;9.870;2023-06-26T13:37:43;3.33;;;3.03;;
65463;SDS011;52063;45.110;9.870;2023-06-26T13:40:08;3.17;;;2.90;;
65463;SDS011;52063;45.110;9.870;2023-06-26T13:42:34;2.70;;;2.50;;
65463;SDS011;52063;45.110;9.870;2023-06-26T13:45:01;3.05;;;2.80;;
65463;SDS011;52063;45.110;9.870;2023-06-26T13:47:28;3.20;;;2.63;;
65463;SDS011;52063;45.110;9.870;2023-06-26T13:49:53;3.73;;;2.90;;
65463;SDS011;52063;45.110;9.870;2023-06-26T13:52:19;3.00;;;2.80;;
65463;SDS011;52063;45.110;9.870;2023-06-26T13:54:44;3.10;;;2.90;;
65463;SDS011;52063;45.110;9.870;2023-06-26T13:57:10;3.37;;;3.00;;
65463;SDS011;52063;45.110;9.870;2023-06-26T13:59:37;3.25;;;2.58;;
65463;SDS011;52063;45.110;9.870;2023-06-26T14:02:04;2.70;;;2.50;;
65463;SDS011;52063;45.110;9.870;2023-06-26T14:04:30;2.93;;;2.63;;
65463;SDS011;52063;45.110;9.870;2023-06-26T14:06:56;2.60;;;2.40;;
65463;SDS011;52063;45.110;9.870;2023-06-26T14:09:21;2.97;;;2.70;;
65463;SDS011;52063;45.110;9.870;2023-06-26T14:11:47;2.97;;;2.77;;
65463;SDS011;52063;45.110;9.870;2023-06-26T14:14:13;2.60;;;2.40;;
65463;SDS011;52063;45.110;9.870;2023-06-26T14:16:38;3.00;;;2.80;;
65463;SDS011;52063;45.110;9.870;2023-06-26T14:19:05;3.17;;;2.97;;
65463;SDS011;52063;45.110;9.870;2023-06-26T14:21:30;2.88;;;2.58;;
65463;SDS011;52063;45.110;9.870;2023-06-26T14:23:56;3.00;;;2.70;;
65463;SDS011;52063;45.110;9.870;2023-06-26T14:26:22;2.92;;;2.55;;
65463;SDS011;52063;45.110;9.870;2023-06-26T14:28:47;3.37;;;3.10;;
65463;SDS011;52063;45.110;9.870;2023-06-26T14:31:13;3.73;;;2.77;;
65463;SDS011;52063;45.110;9.870;2023-06-26T14:33:38;2.88;;;2.67;;
65463;SDS011;52063;45.110;9.870;2023-06-26T14:36:04;3.27;;;2.97;;
65463;SDS011;52063;45.110;9.870;2023-06-26T14:38:29;3.10;;;2.63;;
65463;SDS011;52063;45.110;9.870;2023-06-26T14:40:55;2.90;;;2.70;;
65463;SDS011;52063;45.110;9.870;2023-06-26T14:43:21;3.20;;;2.90;;
65463;SDS011;52063;45.110;9.870;2023-06-26T14:45:46;2.93;;;2.70;;
65463;SDS011;52063;45.110;9.870;2023-06-26T14:48:12;3.20;;;2.85;;
65463;SDS011;52063;45.110;9.870;2023-06-26T14:50:37;3.03;;;2.73;;
65463;SDS011;52063;45.110;9.870;2023-06-26T14:53:03;3.00;;;2.80;;
65463;SDS011;52063;45.110;9.870;2023-06-26T14:55:29;2.78;;;2.55;;
65463;SDS011;52063;45.110;9.870;2023-06-26T14:57:54;2.70;;;2.50;;
65463;SDS011;52063;45.110;9.870;2023-06-26T15:00:20;2.93;;;2.73;;
65463;SDS011;52063;45.110;9.870;2023-06-26T15:02:46;2.80;;;2.60;;